LDDU Airport Information

Runway Information
Runway 12 Length 10827 ft width 148 ft
Elevation 519 ft Threshold 488 ft Heading 118
Runway 30 Length 10827 ft Width 148 ft
Elevation 484 ft Threshold 0 ft Heading 298
Airport Frequencies
Type APP Name APP Frequency 123.6 MHZ
Type TWR Name TWR Frequency 129.5 MHZ
Airport Navaids
Type NDB Name Dubrovnik Frequency 397 KHZ
Type VOR-DME Name Dubrovnik Frequency 115400 KHZ
Type NDB Name Dubrovnik Frequency 414 KHZ
Type NDB Name Kolocep Frequency 318 KHZ
Airport Weather Information & NOTAM
ADDS - METARS form results

(0253 UTC 23 January 2022)
Data provider http://aviationweather.gov/metar/data/
 
METAR text: LDDU 230230Z VRB10KT CAVOK 01/M10 Q1026
Conditions at: LDDU (DUBROVNIK-CILIPI, HR) observed 0230 UTC 23 January 2022
Temperature: 1.0°C (34°F)
Dewpoint: -10.0°C (14°F) [RH = 44%]
Pressure (altimeter): 30.30 inches Hg (1026.0 mb)
Winds: variable direction winds at 12 MPH (10 knots; 5.1 m/s)
Visibility: 6 or more miles (10+ km)
Ceiling: ceiling and visibility are OK
Clouds: unknown
Weather: no significant weather observed at this time

METAR text: LDDU 230200Z VRB05KT CAVOK 02/M10 Q1026
Conditions at: LDDU (DUBROVNIK-CILIPI, HR) observed 0200 UTC 23 January 2022
Temperature: 2.0°C (36°F)
Dewpoint: -10.0°C (14°F) [RH = 41%]
Pressure (altimeter): 30.30 inches Hg (1026.0 mb)
Winds: variable direction winds at 6 MPH (5 knots; 2.6 m/s)
Visibility: 6 or more miles (10+ km)
Ceiling: ceiling and visibility are OK
Clouds: unknown
Weather: no significant weather observed at this time

Forecast for: LDDU (DUBROVNIK-CILIPI, HR)
Text: TAF LDDU 222325Z 2300/2400 01012KT CAVOK TX07/2313Z TN01/2305Z
Forecast period: 0000 UTC 23 January 2022 to 0000 UTC 24 January 2022
Forecast type: FROM: standard forecast or significant change
Winds: from the N (10 degrees) at 14 MPH (12 knots; 6.2 m/s)
Visibility: 6 or more miles (10+ km)
Ceiling: unknown
Clouds: missing
Weather: no significant weather forecast for this period
Text: PROB40
Forecast period: 0000 to 1900 UTC 23 January 2022
Forecast type: TEMPORARY: The following changes expected for less than half the time period
Winds: variable direction winds at 17 MPH (15 knots; 7.7 m/s)
gusting to 29 MPH (25 knots; 12.9 m/s)
Visibility: missing
Ceiling: unknown
Clouds: missing
Weather: no significant weather forecast for this period